United Dynamic — SVAW4 — position and weather

sailwx.info

Track history (hours):
 
Tides and Currents Weather Stations Pressure Air Temp Water Temp Dewpoint Dewpoint Depression Visibility Wind Speed Wind Dir Waves Ship Positions

United Dynamic

Last reported at 2018-May-21 04:16 UTC. Time now 2018-Jun-23 06:32 UTC.
Position N 23°27' E 065°06'.
Warning: this ship's position is 33 days out of date.

Length 274 m; draft 9 m.

Type: Tanker. MMSI: 240968000.

Date/timePositionNaut miles runAvg speedWind from/ knotsBaromVisibWave heightAir tempDewpointWater temp
2018-May-21 04:16N 23°27' E 065°06'510.8
2018-May-21 03:51N 23°24' E 065°09'410.9
2018-May-21 03:29N 23°21' E 065°12'10411.4
2018-May-20 18:20N 21°58' E 066°21'412.2
2018-May-20 18:00N 21°55' E 066°23'712.1
2018-May-20 17:28N 21°50' E 066°28'612.1
2018-May-20 17:00N 21°45' E 066°31'812.2
2018-May-20 16:22N 21°39' E 066°36'512.0
2018-May-20 15:59N 21°35' E 066°39'612.0
2018-May-20 15:29N 21°31' E 066°43'611.9
2018-May-20 14:58N 21°26' E 066°47'611.6
2018-May-20 14:29N 21°21' E 066°51'611.5
2018-May-20 14:00N 21°17' E 066°55'7810.9
2018-May-20 06:50N 20°15' E 067°46'1211.0
2018-May-20 05:47N 20°05' E 067°53'411.2
2018-May-20 05:23N 20°02' E 067°56'411.2
2018-May-20 05:00N 19°59' E 067°59'3311.0
2018-May-20 02:01N 19°32' E 068°20'111.1
2018-May-20 01:54N 19°31' E 068°21'511.3
2018-May-20 01:26N 19°27' E 068°25'511.6
2018-May-20 01:00N 19°23' E 068°28'611.6
2018-May-20 00:29N 19°18' E 068°32'611.6
2018-May-19 23:59N 19°14' E 068°35'9511.9
2018-May-19 15:58N 17°58' E 069°37'1011.8
2018-May-19 15:08N 17°50' E 069°43'211.6
2018-May-19 15:00N 17°49' E 069°44'611.6
2018-May-19 14:30N 17°45' E 069°48'611.8
2018-May-19 14:00N 17°40' E 069°51'612.0
2018-May-19 13:30N 17°35' E 069°55'712.0
2018-May-19 12:55N 17°30' E 069°60'512.1
2018-May-19 12:30N 17°26' E 070°03'712.3
2018-May-19 11:57N 17°20' E 070°07'  
Track history (hours):
 
Tides and Currents Weather Stations Pressure Air Temp Water Temp Dewpoint Dewpoint Depression Visibility Wind Speed Wind Dir Waves Ship Positions

United Dynamic

Last reported at 2018-May-21 04:16 UTC. Time now 2018-Jun-23 06:32 UTC.
Position N 23°27' E 065°06'.
Warning: this ship's position is 33 days out of date.

Length 274 m; draft 9 m.

Type: Tanker. MMSI: 240968000.

Date/timePositionNaut miles runAvg speedWind from/ knotsBaromVisibWave heightAir tempDewpointWater temp
2018-May-21 04:16N 23°27' E 065°06'510.8
2018-May-21 03:51N 23°24' E 065°09'410.9
2018-May-21 03:29N 23°21' E 065°12'10411.4
2018-May-20 18:20N 21°58' E 066°21'412.2
2018-May-20 18:00N 21°55' E 066°23'712.1
2018-May-20 17:28N 21°50' E 066°28'612.1
2018-May-20 17:00N 21°45' E 066°31'812.2
2018-May-20 16:22N 21°39' E 066°36'512.0
2018-May-20 15:59N 21°35' E 066°39'612.0
2018-May-20 15:29N 21°31' E 066°43'611.9
2018-May-20 14:58N 21°26' E 066°47'611.6
2018-May-20 14:29N 21°21' E 066°51'611.5
2018-May-20 14:00N 21°17' E 066°55'7810.9
2018-May-20 06:50N 20°15' E 067°46'1211.0
2018-May-20 05:47N 20°05' E 067°53'411.2
2018-May-20 05:23N 20°02' E 067°56'411.2
2018-May-20 05:00N 19°59' E 067°59'3311.0
2018-May-20 02:01N 19°32' E 068°20'111.1
2018-May-20 01:54N 19°31' E 068°21'511.3
2018-May-20 01:26N 19°27' E 068°25'511.6
2018-May-20 01:00N 19°23' E 068°28'611.6
2018-May-20 00:29N 19°18' E 068°32'611.6
2018-May-19 23:59N 19°14' E 068°35'9511.9
2018-May-19 15:58N 17°58' E 069°37'1011.8
2018-May-19 15:08N 17°50' E 069°43'211.6
2018-May-19 15:00N 17°49' E 069°44'611.6
2018-May-19 14:30N 17°45' E 069°48'611.8
2018-May-19 14:00N 17°40' E 069°51'612.0
2018-May-19 13:30N 17°35' E 069°55'712.0
2018-May-19 12:55N 17°30' E 069°60'512.1
2018-May-19 12:30N 17°26' E 070°03'712.3
2018-May-19 11:57N 17°20' E 070°07'  

Dump ship's entire track history